Time;durP1;ratioP1;P1;durP2;ratioP2;P2;SDS_P1;SDS_P2;PMS_P1;PMS_P2;Temp;Humidity;BMP_temperature;BMP_pressure;BME280_temperature;BME280_humidity;BME280_pressure;Samples;Min_cycle;Max_cycle;Signal;HPM_P1;HPM_P2
2023/08/07 00:01:27;;;;;;;3.00;2.20;;;;;;;13.91;100.00;97953.03;4141089;28;20645;-75
2023/08/07 00:03:50;;;;;;;3.83;1.43;;;;;;;13.91;100.00;97960.91;4140315;28;20776;-75
2023/08/07 00:06:13;;;;;;;4.13;1.70;;;;;;;13.90;100.00;97964.47;4142168;28;21211;-76
2023/08/07 00:08:31;;;;;;;2.47;1.30;;;;;;;13.91;100.00;97956.47;4153514;28;21061;-75
2023/08/07 00:10:54;;;;;;;5.03;1.80;;;;;;;13.86;100.00;97966.53;4144133;28;20601;-74
2023/08/07 00:13:14;;;;;;;2.00;1.27;;;;;;;13.83;100.00;97956.31;4151202;28;20635;-74
2023/08/07 00:15:26;;;;;;;3.60;1.57;;;;;;;13.86;100.00;97963.06;4138514;28;21034;-75
2023/08/07 00:17:30;;;;;;;2.40;1.60;;;;;;;13.84;100.00;97952.69;4154921;28;21579;-74
2023/08/07 00:19:38;;;;;;;4.77;1.60;;;;;;;13.83;100.00;97956.31;4137959;28;20646;-74
2023/08/07 00:21:43;;;;;;;3.23;1.43;;;;;;;13.82;100.00;97967.72;4139025;28;20639;-74
2023/08/07 00:23:50;;;;;;;2.67;1.80;;;;;;;13.83;100.00;97955.44;4154523;28;20712;-74
2023/08/07 00:25:57;;;;;;;2.40;1.50;;;;;;;13.83;100.00;97963.31;4156015;28;20642;-74
2023/08/07 00:28:01;;;;;;;4.93;1.60;;;;;;;13.80;100.00;97959.19;4151831;28;20661;-74
2023/08/07 00:30:07;;;;;;;2.47;1.50;;;;;;;13.81;100.00;97958.19;4136673;28;20635;-75
2023/08/07 00:32:15;;;;;;;5.87;1.83;;;;;;;13.84;100.00;97954.50;4143491;28;21077;-75
2023/08/07 00:34:21;;;;;;;2.93;1.80;;;;;;;13.83;100.00;97963.31;4120503;28;20650;-76
2023/08/07 00:36:35;;;;;;;2.53;1.53;;;;;;;13.83;100.00;97958.06;4138671;28;20739;-74
2023/08/07 00:38:42;;;;;;;3.00;1.47;;;;;;;13.85;100.00;97957.00;4121897;28;20648;-74
2023/08/07 00:40:48;;;;;;;2.67;1.37;;;;;;;13.84;100.00;97960.56;4125722;28;20723;-74
2023/08/07 00:43:08;;;;;;;2.07;1.60;;;;;;;13.85;100.00;97964.03;4138912;28;20639;-76
2023/08/07 00:45:12;;;;;;;2.50;1.70;;;;;;;13.86;100.00;97963.06;4151998;28;20670;-74
2023/08/07 00:47:35;;;;;;;2.77;1.57;;;;;;;13.86;100.00;97969.16;4153914;28;20635;-75
2023/08/07 00:49:40;;;;;;;2.50;1.50;;;;;;;13.86;100.00;97974.41;4136703;28;20636;-75
2023/08/07 00:51:49;;;;;;;3.27;2.10;;;;;;;13.86;100.00;97965.69;4134489;28;20632;-74
2023/08/07 00:54:15;;;;;;;2.73;1.07;;;;;;;13.88;100.00;97976.91;4128947;28;20620;-74
2023/08/07 00:56:23;;;;;;;5.67;1.53;;;;;;;13.89;100.00;97966.28;4128137;28;20615;-73
2023/08/07 00:58:47;;;;;;;2.13;1.40;;;;;;;13.91;100.00;97974.84;4138270;28;21182;-75
2023/08/07 01:00:51;;;;;;;2.60;1.73;;;;;;;13.94;100.00;97976.38;4137705;28;21227;-74
2023/08/07 01:03:14;;;;;;;2.10;1.13;;;;;;;13.96;100.00;97975.28;4142879;28;20637;-76
2023/08/07 01:05:19;;;;;;;2.73;1.30;;;;;;;13.97;100.00;97966.47;4156613;28;20698;-74
2023/08/07 01:07:26;;;;;;;4.40;1.60;;;;;;;13.94;100.00;97974.59;4134322;28;20636;-74
2023/08/07 01:09:32;;;;;;;4.87;1.67;;;;;;;13.93;100.00;97965.03;4134363;28;20632;-76
2023/08/07 01:11:52;;;;;;;3.30;1.40;;;;;;;13.94;100.00;97963.28;4153538;28;20635;-74
2023/08/07 01:14:23;;;;;;;2.57;1.57;;;;;;;13.95;100.00;97972.78;4135359;28;20710;-75
2023/08/07 01:16:49;;;;;;;3.23;1.80;;;;;;;13.97;100.00;97976.13;4139878;28;20617;-75
2023/08/07 01:19:02;;;;;;;3.83;1.70;;;;;;;13.96;100.00;97974.44;4134059;28;20729;-74
2023/08/07 01:21:19;;;;;;;2.00;1.20;;;;;;;13.94;100.00;97976.38;4149382;28;20742;-74
2023/08/07 01:23:43;;;;;;;2.73;1.57;;;;;;;13.94;100.00;97979.81;4146511;28;20706;-73
2023/08/07 01:26:06;;;;;;;2.87;1.50;;;;;;;13.89;100.00;97968.03;4140941;28;20624;-74
2023/08/07 01:28:34;;;;;;;2.60;1.50;;;;;;;13.90;100.00;97973.16;4154392;28;20620;-73
2023/08/07 01:30:59;;;;;;;2.50;1.37;;;;;;;13.91;100.00;97976.63;4138797;28;20661;-75
2023/08/07 01:33:26;;;;;;;2.43;1.60;;;;;;;13.91;100.00;97980.09;4146842;28;20646;-74
2023/08/07 01:35:36;;;;;;;2.43;1.40;;;;;;;13.93;99.87;97975.53;4159335;28;20614;-74
2023/08/07 01:37:56;;;;;;;1.80;1.27;;;;;;;13.92;100.00;97979.13;4155379;28;20958;-74
2023/08/07 01:40:09;;;;;;;3.07;1.90;;;;;;;13.92;99.60;97979.13;4157809;28;20628;-75
2023/08/07 01:42:32;;;;;;;2.77;1.70;;;;;;;13.95;100.00;97973.63;4143740;28;21281;-74
2023/08/07 01:44:40;;;;;;;3.50;1.40;;;;;;;13.94;100.00;97979.81;4161013;28;21304;-75
2023/08/07 01:47:03;;;;;;;4.70;1.73;;;;;;;13.95;99.12;97978.88;4147759;28;20641;-74
2023/08/07 01:49:10;;;;;;;2.90;1.53;;;;;;;13.97;98.94;97976.13;4137814;28;20662;-74
2023/08/07 01:51:33;;;;;;;2.70;1.83;;;;;;;13.98;98.73;97973.38;4158566;28;20662;-75
2023/08/07 01:53:56;;;;;;;2.10;1.60;;;;;;;13.97;98.65;97969.09;4126515;28;20724;-74
2023/08/07 01:56:02;;;;;;;3.30;1.80;;;;;;;13.98;98.00;97978.63;4147695;28;21184;-74
2023/08/07 01:58:26;;;;;;;3.10;1.83;;;;;;;13.98;98.05;97977.78;4143256;28;20619;-74
2023/08/07 02:00:31;;;;;;;3.53;1.47;;;;;;;13.98;98.82;97975.16;4144891;28;20626;-74
2023/08/07 02:02:54;;;;;;;4.33;1.70;;;;;;;13.97;97.98;97979.56;4153007;28;20623;-75
2023/08/07 02:05:02;;;;;;;2.40;1.67;;;;;;;13.95;98.25;97984.13;4137606;28;20698;-74
2023/08/07 02:07:25;;;;;;;3.50;1.40;;;;;;;13.95;98.03;97973.63;4141090;28;20629;-75
2023/08/07 02:09:49;;;;;;;4.37;2.27;;;;;;;13.95;97.41;97988.50;4156128;28;20656;-84
2023/08/07 02:12:13;;;;;;;3.83;1.80;;;;;;;13.95;98.14;97981.50;4150488;28;20725;-82
2023/08/07 02:14:36;;;;;;;3.53;1.80;;;;;;;13.94;97.52;97982.44;4159614;28;20610;-81
2023/08/07 02:16:56;;;;;;;4.30;1.80;;;;;;;13.96;97.42;97987.56;4153628;28;20742;-82
2023/08/07 02:19:05;;;;;;;2.60;1.50;;;;;;;13.95;97.41;97994.63;4136189;28;20674;-81
2023/08/07 02:21:28;;;;;;;3.87;1.30;;;;;;;13.90;96.60;97985.44;4155084;28;20618;-83
2023/08/07 02:23:51;;;;;;;4.23;1.40;;;;;;;13.92;97.06;97992.25;4142840;28;20661;-83
2023/08/07 02:26:14;;;;;;;3.30;1.70;;;;;;;13.92;97.46;97994.00;4141759;28;20639;-82
2023/08/07 02:28:34;;;;;;;3.53;1.50;;;;;;;13.93;97.10;97983.41;4163375;28;20685;-81
2023/08/07 02:30:47;;;;;;;2.90;1.63;;;;;;;13.92;97.39;97994.00;4144459;28;20632;-81
2023/08/07 02:33:10;;;;;;;3.00;1.87;;;;;;;13.93;97.30;97998.31;4133656;28;21225;-83
2023/08/07 02:35:25;;;;;;;2.70;1.60;;;;;;;13.91;97.24;98000.25;4160576;28;21256;-82
2023/08/07 02:37:32;;;;;;;5.30;1.57;;;;;;;13.89;97.33;97999.50;4146741;28;20685;-83
2023/08/07 02:39:55;;;;;;;2.23;1.20;;;;;;;13.89;96.94;97991.66;4150875;28;21241;-81
2023/08/07 02:42:05;;;;;;;3.30;1.40;;;;;;;13.88;97.06;97990.81;4142250;28;21163;-82
2023/08/07 02:44:29;;;;;;;3.00;1.60;;;;;;;13.86;96.88;98000.63;4142082;28;20644;-82
2023/08/07 02:46:53;;;;;;;3.77;1.60;;;;;;;13.82;97.11;98007.06;4142946;28;21236;-82
2023/08/07 02:49:04;;;;;;;2.67;1.50;;;;;;;13.82;96.90;98009.69;4160908;28;20745;-82
2023/08/07 02:51:27;;;;;;;2.63;1.40;;;;;;;13.82;97.08;98007.06;4138307;28;20637;-83
2023/08/07 02:53:50;;;;;;;4.63;1.67;;;;;;;13.82;96.65;98003.63;4131390;28;20614;-83
2023/08/07 02:56:13;;;;;;;4.53;1.60;;;;;;;13.83;96.36;98011.34;4160564;28;20630;-82
2023/08/07 02:58:37;;;;;;;5.93;2.47;;;;;;;13.86;96.42;98016.34;4150884;28;20697;-83
2023/08/07 03:00:41;;;;;;;4.53;1.60;;;;;;;13.87;97.07;98014.53;4131551;28;20672;-81
2023/08/07 03:02:44;;;;;;;3.67;1.77;;;;;;;13.87;96.78;98004.88;4143381;28;21183;-83
2023/08/07 03:04:48;;;;;;;3.93;1.90;;;;;;;13.86;97.02;98005.00;4139592;28;21556;-83
2023/08/07 03:06:54;;;;;;;4.07;1.73;;;;;;;13.84;96.45;98007.75;4138125;28;21264;-83
2023/08/07 03:08:59;;;;;;;3.43;1.77;;;;;;;13.84;96.74;98007.75;4121702;28;20684;-83
2023/08/07 03:11:03;;;;;;;3.80;1.63;;;;;;;13.86;96.34;98005.84;4139423;28;21200;-81
2023/08/07 03:13:10;;;;;;;3.30;2.00;;;;;;;13.90;95.71;98011.66;4127582;28;20624;-83
2023/08/07 03:15:17;;;;;;;3.83;1.70;;;;;;;13.86;95.59;98013.72;4151848;28;20666;-82
2023/08/07 03:17:27;;;;;;;4.30;1.80;;;;;;;13.84;93.99;98017.41;4134542;28;20644;-83
2023/08/07 03:19:33;;;;;;;2.60;1.73;;;;;;;13.80;95.21;98016.84;4143044;28;20644;-82
2023/08/07 03:21:56;;;;;;;4.00;2.07;;;;;;;13.79;95.01;98020.41;4143348;28;20955;-80
2023/08/07 03:23:59;;;;;;;2.67;1.60;;;;;;;13.76;95.49;98025.91;4121599;28;20641;-81
2023/08/07 03:26:05;;;;;;;3.20;1.80;;;;;;;13.77;95.42;98019.72;4138719;28;20703;-80
2023/08/07 03:28:27;;;;;;;2.60;1.40;;;;;;;13.82;95.09;98014.91;4137891;28;20633;-79
2023/08/07 03:30:31;;;;;;;3.37;1.80;;;;;;;13.80;94.62;98011.59;4134156;28;21029;-77
2023/08/07 03:32:42;;;;;;;2.90;1.60;;;;;;;13.77;94.95;98011.84;4132824;28;21121;-80
2023/08/07 03:34:46;;;;;;;4.47;1.60;;;;;;;13.76;94.87;98015.44;4133247;28;20658;-81
2023/08/07 03:37:10;;;;;;;3.90;1.70;;;;;;;13.78;94.88;98010.06;4147961;28;20950;-82
2023/08/07 03:39:20;;;;;;;2.60;1.37;;;;;;;13.75;95.15;98008.50;4139429;28;20640;-80
2023/08/07 03:41:33;;;;;;;3.93;2.17;;;;;;;13.69;95.09;98013.44;4120969;28;20627;-80
2023/08/07 03:43:46;;;;;;;2.50;1.77;;;;;;;13.69;95.23;98013.44;4131812;28;20646;-79
2023/08/07 03:45:56;;;;;;;9.47;3.00;;;;;;;13.72;95.07;98018.41;4141046;28;20651;-81
2023/08/07 03:48:08;;;;;;;3.97;1.50;;;;;;;13.73;94.75;98014.84;4136617;28;20691;-81
2023/08/07 03:50:13;;;;;;;3.63;2.20;;;;;;;13.74;94.74;98021.75;4125088;28;20639;-81
2023/08/07 03:52:36;;;;;;;3.63;1.90;;;;;;;13.75;95.37;98028.66;4160899;28;21051;-81
2023/08/07 03:54:48;;;;;;;4.77;1.77;;;;;;;13.76;95.15;98025.91;4137969;28;20692;-80
2023/08/07 03:57:11;;;;;;;3.20;1.70;;;;;;;13.76;94.93;98031.16;4146439;28;20624;-81
2023/08/07 03:59:15;;;;;;;2.57;1.83;;;;;;;13.77;95.16;98026.72;4138147;28;21241;-80
2023/08/07 04:01:38;;;;;;;3.50;1.87;;;;;;;13.77;94.63;98027.59;4139070;28;20635;-81
2023/08/07 04:04:03;;;;;;;3.30;1.40;;;;;;;13.80;94.94;98031.72;4145525;28;20663;-81
2023/08/07 04:06:26;;;;;;;2.50;1.40;;;;;;;13.81;94.63;98039.47;4147876;28;20659;-80
2023/08/07 04:08:50;;;;;;;2.97;1.50;;;;;;;13.80;94.48;98027.34;4141658;28;20612;-82
2023/08/07 04:11:13;;;;;;;4.13;1.87;;;;;;;13.80;94.09;98042.22;4142340;28;20620;-80
2023/08/07 04:13:36;;;;;;;3.47;1.53;;;;;;;13.80;94.16;98037.81;4140563;28;20621;-81
2023/08/07 04:16:00;;;;;;;2.47;1.77;;;;;;;13.82;94.96;98043.75;4140699;28;21015;-81
2023/08/07 04:18:25;;;;;;;3.00;1.50;;;;;;;13.79;95.17;98059.75;4136069;28;20660;-80
2023/08/07 04:20:52;;;;;;;2.13;1.37;;;;;;;13.76;95.67;98052.13;4127145;28;21066;-81
2023/08/07 04:23:15;;;;;;;3.73;1.50;;;;;;;13.76;96.84;98053.94;4147551;28;21179;-80
2023/08/07 04:25:38;;;;;;;5.77;2.60;;;;;;;13.75;96.97;98049.63;4139042;28;20611;-81
2023/08/07 04:28:00;;;;;;;5.73;1.77;;;;;;;13.70;97.22;98047.38;4127308;28;21062;-80
2023/08/07 04:30:22;;;;;;;2.67;2.07;;;;;;;13.67;97.25;98058.13;4127839;28;20708;-81
2023/08/07 04:32:44;;;;;;;2.53;1.50;;;;;;;13.67;97.09;98055.50;4150707;28;20622;-81
2023/08/07 04:35:07;;;;;;;2.40;1.47;;;;;;;13.66;97.72;98061.69;4151362;28;20627;-80
2023/08/07 04:37:30;;;;;;;3.70;1.87;;;;;;;13.64;98.31;98059.34;4159255;28;21062;-80
2023/08/07 04:39:54;;;;;;;4.93;1.50;;;;;;;13.61;98.91;98057.78;4152866;28;20665;-80
2023/08/07 04:42:16;;;;;;;2.00;1.30;;;;;;;13.63;98.79;98060.28;4159034;28;20651;-81
2023/08/07 04:44:38;;;;;;;4.10;1.80;;;;;;;13.61;98.39;98067.44;4151277;28;20683;-81
2023/08/07 04:47:01;;;;;;;3.53;2.13;;;;;;;13.61;98.80;98065.66;4143638;28;20671;-79
2023/08/07 04:49:23;;;;;;;3.00;1.80;;;;;;;13.64;98.77;98074.09;4141148;28;20633;-81
2023/08/07 04:51:44;;;;;;;4.80;1.80;;;;;;;13.65;98.71;98062.66;4138608;28;20780;-80
2023/08/07 04:54:08;;;;;;;4.33;1.83;;;;;;;13.66;98.66;98071.34;4155088;28;21103;-81
2023/08/07 04:56:31;;;;;;;3.60;1.63;;;;;;;13.68;98.67;98067.66;4130255;28;20603;-81
2023/08/07 04:58:52;;;;;;;2.80;1.50;;;;;;;13.69;98.83;98071.09;4158128;28;20712;-82
2023/08/07 05:01:16;;;;;;;3.27;1.47;;;;;;;13.68;98.61;98069.41;4157314;28;20960;-80
2023/08/07 05:03:38;;;;;;;3.10;1.90;;;;;;;13.69;97.97;98078.97;4164884;28;20686;-80
2023/08/07 05:06:00;;;;;;;2.87;1.70;;;;;;;13.69;98.53;98079.78;4141173;28;20618;-81
2023/08/07 05:08:22;;;;;;;3.77;1.60;;;;;;;13.72;98.55;98076.09;4156329;28;21221;-81
2023/08/07 05:10:45;;;;;;;3.27;1.57;;;;;;;13.77;98.11;98085.25;4140394;28;20634;-81
2023/08/07 05:13:07;;;;;;;2.40;2.00;;;;;;;13.80;98.55;98085.00;4157188;28;20614;-81
2023/08/07 05:15:30;;;;;;;4.13;1.80;;;;;;;13.86;97.59;98089.75;4156615;28;20598;-80
2023/08/07 05:17:53;;;;;;;3.33;1.43;;;;;;;13.83;96.99;98079.53;4156678;28;20687;-79
2023/08/07 05:20:15;;;;;;;4.77;2.33;;;;;;;13.86;97.51;98083.66;4155508;28;20570;-80
2023/08/07 05:22:37;;;;;;;2.30;1.30;;;;;;;13.87;97.01;98085.34;4141600;28;20575;-81
2023/08/07 05:24:59;;;;;;;2.60;1.60;;;;;;;13.84;96.64;98088.22;4154931;28;20738;-79
2023/08/07 05:27:22;;;;;;;4.53;2.00;;;;;;;13.86;97.41;98084.50;4151768;28;20643;-81
2023/08/07 05:29:44;;;;;;;2.33;1.50;;;;;;;13.92;97.75;98099.75;4158056;28;20659;-82
2023/08/07 05:32:07;;;;;;;5.03;1.90;;;;;;;13.93;97.34;98098.78;4154312;28;20876;-80
2023/08/07 05:34:28;;;;;;;3.53;1.80;;;;;;;13.91;97.47;98098.06;4141454;28;21010;-80
2023/08/07 05:36:50;;;;;;;3.83;1.53;;;;;;;13.93;97.25;98095.31;4153177;28;20644;-80
2023/08/07 05:39:13;;;;;;;3.13;1.63;;;;;;;13.91;96.32;98105.94;4142123;28;20664;-79
2023/08/07 05:41:34;;;;;;;4.50;2.17;;;;;;;13.87;96.03;98099.28;4146071;28;20634;-72
2023/08/07 05:43:58;;;;;;;4.87;2.10;;;;;;;13.93;96.65;98105.81;4150712;28;20617;-73
2023/08/07 05:46:20;;;;;;;3.83;1.70;;;;;;;13.97;96.63;98102.81;4158997;28;20610;-73
2023/08/07 05:48:42;;;;;;;5.07;1.70;;;;;;;14.00;97.00;98105.19;4123880;28;21237;-72
2023/08/07 05:51:04;;;;;;;3.43;1.90;;;;;;;14.02;96.46;98116.38;4144429;28;21060;-74
2023/08/07 05:53:25;;;;;;;4.00;2.07;;;;;;;13.98;96.64;98111.50;4152488;28;20674;-72
2023/08/07 05:55:47;;;;;;;6.87;1.97;;;;;;;14.01;96.09;98119.13;4156907;28;20673;-72
2023/08/07 05:58:09;;;;;;;2.00;1.50;;;;;;;14.03;96.05;98118.06;4136036;28;20591;-73
2023/08/07 06:00:32;;;;;;;3.00;1.60;;;;;;;13.97;95.70;98129.03;4156774;28;20601;-73
2023/08/07 06:02:54;;;;;;;3.77;1.90;;;;;;;14.00;96.65;98127.97;4147623;28;20684;-74
2023/08/07 06:05:16;;;;;;;4.40;2.00;;;;;;;14.01;95.30;98127.00;4133164;28;21018;-72
2023/08/07 06:07:38;;;;;;;2.90;1.50;;;;;;;14.00;96.12;98127.97;4156856;28;20711;-72
2023/08/07 06:09:59;;;;;;;5.23;1.53;;;;;;;14.01;95.75;98133.09;4159737;28;20652;-72
2023/08/07 06:12:21;;;;;;;3.40;2.40;;;;;;;14.00;95.45;98128.78;4160700;28;20974;-72
2023/08/07 06:14:43;;;;;;;2.80;1.87;;;;;;;14.00;95.55;98134.03;4158518;28;20685;-72
2023/08/07 06:17:07;;;;;;;2.03;1.33;;;;;;;14.01;95.70;98133.09;4141818;28;20599;-72
2023/08/07 06:19:29;;;;;;;2.93;1.70;;;;;;;14.02;96.10;98139.16;4158062;28;20601;-74
2023/08/07 06:21:53;;;;;;;2.60;1.30;;;;;;;14.03;95.90;98130.34;4143516;28;20612;-73
2023/08/07 06:24:15;;;;;;;7.80;2.43;;;;;;;14.04;95.79;98135.44;4156310;28;20586;-72
2023/08/07 06:26:37;;;;;;;3.70;1.43;;;;;;;14.08;95.85;98136.91;4157286;28;21189;-73
2023/08/07 06:28:59;;;;;;;3.07;1.50;;;;;;;14.13;95.30;98139.97;4129057;28;20583;-73
2023/08/07 06:31:21;;;;;;;3.30;1.53;;;;;;;14.15;95.67;98133.66;4146314;28;21105;-74
2023/08/07 06:33:44;;;;;;;6.50;1.87;;;;;;;14.20;95.05;98146.38;4155772;28;20613;-73
2023/08/07 06:36:08;;;;;;;3.53;1.60;;;;;;;14.22;94.55;98145.31;4156599;28;20708;-72
2023/08/07 06:38:29;;;;;;;4.57;1.60;;;;;;;14.31;95.45;98143.72;4145913;28;20653;-73
2023/08/07 06:40:51;;;;;;;2.77;1.80;;;;;;;14.36;94.53;98146.81;4157927;28;20615;-73
2023/08/07 06:43:13;;;;;;;5.33;1.80;;;;;;;14.41;94.98;98144.63;4157272;28;20981;-74
2023/08/07 06:45:35;;;;;;;3.40;2.03;;;;;;;14.49;93.67;98147.44;4142822;28;20706;-74
2023/08/07 06:47:57;;;;;;;2.87;1.60;;;;;;;14.56;92.99;98148.63;4124727;28;20717;-72
2023/08/07 06:50:20;;;;;;;3.20;1.70;;;;;;;14.61;93.62;98140.22;4157135;28;20595;-81
2023/08/07 06:52:41;;;;;;;3.63;2.20;;;;;;;14.71;94.21;98148.97;4156057;28;20611;-78
2023/08/07 06:55:04;;;;;;;4.00;1.60;;;;;;;14.82;92.59;98146.28;4160111;28;20602;-78
2023/08/07 06:57:26;;;;;;;2.60;1.80;;;;;;;14.90;93.22;98149.13;4136215;28;20635;-80
2023/08/07 06:59:48;;;;;;;4.30;1.87;;;;;;;14.99;91.36;98140.44;4132255;28;20649;-78
2023/08/07 07:02:10;;;;;;;2.40;1.53;;;;;;;15.06;90.22;98148.63;4152993;28;20641;-80
2023/08/07 07:04:32;;;;;;;3.27;1.50;;;;;;;15.14;90.76;98152.28;4154184;28;20622;-81
2023/08/07 07:06:55;;;;;;;3.03;1.90;;;;;;;15.21;90.85;98148.19;4146419;28;20698;-80
2023/08/07 07:09:17;;;;;;;2.97;1.80;;;;;;;15.28;89.21;98149.34;4155214;28;20634;-80
2023/08/07 07:11:39;;;;;;;4.23;2.03;;;;;;;15.37;90.22;98144.09;4152807;28;20763;-81
2023/08/07 07:14:01;;;;;;;2.27;1.50;;;;;;;15.44;88.73;98149.66;4152466;28;20654;-81
2023/08/07 07:16:23;;;;;;;3.33;1.80;;;;;;;15.48;88.08;98153.69;4158425;28;20948;-80
2023/08/07 07:18:44;;;;;;;4.00;1.70;;;;;;;15.49;89.62;98152.75;4155246;28;20600;-80
2023/08/07 07:21:06;;;;;;;3.47;1.33;;;;;;;15.45;89.15;98151.31;4156623;28;20621;-79
2023/08/07 07:23:30;;;;;;;4.10;1.53;;;;;;;15.40;89.27;98153.53;4141338;28;21248;-81
2023/08/07 07:25:51;;;;;;;3.20;1.60;;;;;;;15.37;89.35;98156.44;4158719;28;20624;-81
2023/08/07 07:28:13;;;;;;;3.23;1.40;;;;;;;15.32;88.80;98163.84;4142169;28;20688;-80
2023/08/07 07:30:35;;;;;;;2.63;1.80;;;;;;;15.33;89.36;98158.47;4139264;28;20600;-81
2023/08/07 07:32:57;;;;;;;4.00;1.70;;;;;;;15.29;87.67;98161.50;4152825;28;21209;-80
2023/08/07 07:35:19;;;;;;;2.27;1.50;;;;;;;15.28;87.11;98162.47;4156778;28;20596;-80
2023/08/07 07:37:41;;;;;;;3.00;1.40;;;;;;;15.30;87.06;98158.72;4144660;28;20574;-80
2023/08/07 07:40:05;;;;;;;2.00;1.33;;;;;;;15.30;87.89;98160.53;4159795;28;20591;-81
2023/08/07 07:42:27;;;;;;;2.50;1.50;;;;;;;15.31;87.06;98177.97;4150527;28;20631;-83
2023/08/07 07:44:48;;;;;;;3.40;1.80;;;;;;;15.28;87.13;98167.72;4155296;28;20647;-81
2023/08/07 07:46:52;;;;;;;3.60;2.00;;;;;;;15.26;86.13;98161.75;4156258;28;20985;-82
2023/08/07 07:48:55;;;;;;;3.43;1.90;;;;;;;15.25;87.54;98179.31;4150313;28;20713;-81
2023/08/07 07:51:00;;;;;;;2.40;1.73;;;;;;;15.28;87.23;98180.88;4156948;28;20706;-80
2023/08/07 07:53:03;;;;;;;3.10;1.80;;;;;;;15.29;87.24;98175.47;4135590;28;20633;-81
2023/08/07 07:55:09;;;;;;;2.40;1.43;;;;;;;15.30;86.09;98173.69;4137483;28;20624;-80
2023/08/07 07:57:12;;;;;;;3.73;2.07;;;;;;;15.29;86.03;98172.00;4148710;28;20639;-81
2023/08/07 07:59:16;;;;;;;3.13;1.50;;;;;;;15.28;86.95;98184.31;4151549;28;20667;-81
2023/08/07 08:01:19;;;;;;;2.50;1.50;;;;;;;15.27;87.16;98177.38;4152345;28;20638;-72
2023/08/07 08:03:23;;;;;;;3.87;1.77;;;;;;;15.25;85.11;98189.00;4133572;28;20654;-73
2023/08/07 08:05:27;;;;;;;4.80;1.60;;;;;;;15.20;86.91;98189.41;4141217;28;20665;-72
2023/08/07 08:07:32;;;;;;;3.33;1.70;;;;;;;15.20;88.03;98199.09;4146929;28;20641;-73
2023/08/07 08:09:35;;;;;;;8.73;1.70;;;;;;;15.22;87.72;98202.41;4150701;28;20627;-72
2023/08/07 08:11:39;;;;;;;4.03;1.60;;;;;;;15.21;86.63;98203.38;4151792;28;20676;-72
2023/08/07 08:13:42;;;;;;;4.40;1.80;;;;;;;15.21;87.19;98208.63;4150556;28;20997;-72
2023/08/07 08:15:46;;;;;;;2.97;1.87;;;;;;;15.24;88.35;98213.63;4156035;28;20656;-72
2023/08/07 08:17:49;;;;;;;3.83;1.50;;;;;;;15.28;87.25;98213.22;4160602;28;20659;-72
2023/08/07 08:19:52;;;;;;;3.00;1.80;;;;;;;15.30;88.22;98208.66;4161081;28;21091;-74
2023/08/07 08:21:55;;;;;;;4.40;1.30;;;;;;;15.30;86.82;98215.72;4155683;28;20653;-72
2023/08/07 08:23:59;;;;;;;3.47;1.60;;;;;;;15.30;86.94;98220.97;4156253;28;20640;-74
2023/08/07 08:26:02;;;;;;;3.50;1.50;;;;;;;15.36;89.32;98223.09;4157143;28;20611;-73
2023/08/07 08:28:06;;;;;;;2.63;1.93;;;;;;;15.38;88.88;98222.00;4139317;28;20703;-72
2023/08/07 08:30:11;;;;;;;2.97;1.87;;;;;;;15.42;89.71;98231.28;4154553;28;21077;-74
2023/08/07 08:32:14;;;;;;;2.40;1.53;;;;;;;15.49;88.43;98226.34;4159561;28;21071;-73
2023/08/07 08:34:17;;;;;;;2.83;1.37;;;;;;;15.53;87.77;98235.63;4158575;28;20656;-74
2023/08/07 08:36:20;;;;;;;2.70;1.57;;;;;;;15.56;87.06;98244.91;4157338;28;20623;-72
2023/08/07 08:38:23;;;;;;;5.33;2.10;;;;;;;15.58;88.81;98240.34;4142097;28;20633;-74
2023/08/07 08:40:26;;;;;;;2.80;1.73;;;;;;;15.59;86.79;98242.03;4155018;28;20619;-72
2023/08/07 08:42:30;;;;;;;4.53;2.57;;;;;;;15.61;86.50;98247.16;4137576;28;20756;-72
2023/08/07 08:44:35;;;;;;;2.20;1.53;;;;;;;15.62;86.71;98230.41;4140368;28;20636;-73
2023/08/07 08:46:40;;;;;;;3.60;1.43;;;;;;;15.60;83.78;98230.53;4155469;28;20675;-73
2023/08/07 08:48:46;;;;;;;3.33;1.47;;;;;;;15.63;86.18;98232.88;4140524;28;20677;-74
2023/08/07 08:50:50;;;;;;;5.97;1.60;;;;;;;15.67;86.26;98239.56;4141987;28;20723;-72
2023/08/07 08:52:54;;;;;;;3.27;1.50;;;;;;;15.66;84.86;98239.69;4150591;28;20642;-73
2023/08/07 08:54:59;;;;;;;3.40;2.00;;;;;;;15.67;83.85;98242.19;4152073;28;20643;-72
2023/08/07 08:57:02;;;;;;;3.10;1.80;;;;;;;15.66;85.02;98240.50;4151974;28;20694;-73
2023/08/07 08:59:06;;;;;;;2.40;1.30;;;;;;;15.64;85.07;98250.34;4146526;28;20647;-73
2023/08/07 09:01:11;;;;;;;2.70;1.30;;;;;;;15.67;84.53;98252.72;4142500;28;20642;-73
2023/08/07 09:03:14;;;;;;;4.50;1.60;;;;;;;15.70;84.75;98257.72;4157781;28;20624;-74
2023/08/07 09:05:19;;;;;;;2.60;1.80;;;;;;;15.75;85.38;98250.25;4131189;28;20641;-75
2023/08/07 09:07:23;;;;;;;2.23;1.53;;;;;;;15.82;85.09;98247.94;4152954;28;20640;-72
2023/08/07 09:09:26;;;;;;;2.93;1.60;;;;;;;15.87;83.54;98249.19;4156303;28;20657;-73
2023/08/07 09:11:30;;;;;;;3.33;1.97;;;;;;;15.93;83.20;98251.28;4155493;28;21192;-81
2023/08/07 09:13:32;;;;;;;2.63;1.37;;;;;;;15.98;83.77;98243.81;4160535;28;20625;-81
2023/08/07 09:15:37;;;;;;;2.37;1.57;;;;;;;16.02;83.57;98248.69;4145904;28;20742;-82
2023/08/07 09:17:42;;;;;;;2.87;1.63;;;;;;;16.13;83.45;98242.47;4144271;28;20637;-77
2023/08/07 09:19:45;;;;;;;3.87;1.50;;;;;;;16.21;82.45;98242.66;4143159;28;20625;-81
2023/08/07 09:21:48;;;;;;;5.70;1.80;;;;;;;16.26;85.19;98241.28;4159852;28;20637;-79
2023/08/07 09:23:51;;;;;;;2.57;1.60;;;;;;;16.33;84.25;98244.25;4136840;28;20635;-81
2023/08/07 09:26:00;;;;;;;1.83;1.37;;;;;;;16.40;82.28;98253.22;4152935;28;20728;-79
2023/08/07 09:28:05;;;;;;;5.10;1.50;;;;;;;16.43;83.99;98248.50;4144979;28;20721;-81
2023/08/07 09:30:09;;;;;;;3.07;1.40;;;;;;;16.50;83.08;98247.84;4143824;28;20655;-81
2023/08/07 09:32:13;;;;;;;3.20;1.33;;;;;;;16.55;81.57;98253.53;4155585;28;20743;-81
2023/08/07 09:34:21;;;;;;;2.97;1.30;;;;;;;16.64;81.98;98262.41;4155502;28;20748;-81
2023/08/07 09:36:24;;;;;;;3.03;1.37;;;;;;;16.73;81.44;98264.22;4143732;28;20636;-81
2023/08/07 09:38:30;;;;;;;2.77;1.50;;;;;;;16.83;81.64;98262.44;4153357;28;20684;-81
2023/08/07 09:40:33;;;;;;;4.43;1.60;;;;;;;16.98;81.30;98273.22;4127561;28;21366;-81
2023/08/07 09:42:37;;;;;;;4.73;1.37;;;;;;;17.10;80.45;98268.66;4139134;28;20794;-81
2023/08/07 09:44:41;;;;;;;4.20;1.60;;;;;;;17.23;80.11;98275.31;4136128;28;21333;-79
2023/08/07 09:46:45;;;;;;;2.63;1.40;;;;;;;17.38;80.23;98280.97;4169819;28;20624;-81
2023/08/07 09:48:48;;;;;;;4.60;1.80;;;;;;;17.52;78.04;98289.28;4136200;28;20958;-82
2023/08/07 09:50:52;;;;;;;3.90;3.20;;;;;;;17.62;77.23;98288.28;4139094;28;20622;-79
2023/08/07 09:52:57;;;;;;;2.80;1.20;;;;;;;17.71;76.04;98287.44;4150074;28;20626;-80
2023/08/07 09:55:00;;;;;;;3.57;1.50;;;;;;;17.81;75.75;98290.03;4162620;28;20681;-81
2023/08/07 09:57:03;;;;;;;2.33;1.20;;;;;;;17.90;75.53;98294.44;4143537;28;20625;-80
2023/08/07 09:59:09;;;;;;;3.70;1.40;;;;;;;17.95;75.17;98293.88;4137237;28;20620;-81
2023/08/07 10:01:12;;;;;;;2.17;1.33;;;;;;;18.02;74.62;98288.84;4165433;28;20731;-81
2023/08/07 10:03:16;;;;;;;3.47;1.40;;;;;;;18.12;74.98;98284.34;4138602;28;20627;-81
2023/08/07 10:05:20;;;;;;;3.67;1.40;;;;;;;18.16;74.20;98286.59;4136002;28;21061;-81
2023/08/07 10:07:24;;;;;;;2.80;1.30;;;;;;;18.18;73.33;98289.91;4139839;28;20634;-81
2023/08/07 10:09:27;;;;;;;1.97;1.20;;;;;;;18.20;71.92;98279.19;4152712;28;20788;-82
2023/08/07 10:11:31;;;;;;;2.17;1.23;;;;;;;18.27;70.97;98282.94;4125445;28;20648;-82
2023/08/07 10:13:34;;;;;;;3.53;1.80;;;;;;;18.36;71.18;98277.56;4137115;28;21011;-80
2023/08/07 10:15:42;;;;;;;3.13;1.43;;;;;;;18.36;70.44;98279.38;4155708;28;20682;-81
2023/08/07 10:17:45;;;;;;;2.17;1.30;;;;;;;18.38;72.51;98280.06;4157570;28;20630;-81
2023/08/07 10:19:47;;;;;;;2.80;1.50;;;;;;;18.45;71.83;98280.16;4138393;28;21134;-80
2023/08/07 10:21:51;;;;;;;3.30;1.50;;;;;;;18.60;72.77;98283.97;4153584;28;21618;-80
2023/08/07 10:23:57;;;;;;;1.93;1.03;;;;;;;18.63;70.21;98282.84;4137257;28;20638;-79
2023/08/07 10:26:00;;;;;;;5.00;1.77;;;;;;;18.57;71.61;98281.59;4154354;28;20631;-81
2023/08/07 10:28:05;;;;;;;2.73;1.33;;;;;;;18.63;71.20;98286.31;4153440;28;20672;-81
2023/08/07 10:30:12;;;;;;;4.40;1.87;;;;;;;18.59;70.93;98284.94;4155490;28;20655;-81